RYR18MQ LIPE-LIBD
Flight info
| Callsign | RYR18MQ |
|---|---|
| Flight time | 0h 44m |
| Altitude | 35000 |
| Route | PELEG DCT BAGNO DCT ERIKA DCT AMSOR DCT EKTOL L995 DOGUS |
| Aircraft | B738/M-SDE2E3FGHIRWXY/LB1 |
Departure
| Time | 2026-04-21 16:05 |
|---|---|
| Airport | Bologna Guglielmo Marconi Airport (LIPE) |
Arrival
| Time | 2026-04-21 16:50 |
|---|---|
| Airport | Bari Karol Wojtyła International Airport (LIBD) |
| Time | Latitude | Longitude | Altitude | Speed | Heading |
|---|---|---|---|---|---|
| 2026-04-21 15:49 | 44.53208 | 11.28940 | 123 ft | 0 kts | 206° |
| 2026-04-21 15:58 | 44.53208 | 11.28941 | 125 ft | 1 kts | 206° |
| 2026-04-21 15:59 | 44.53229 | 11.28958 | 120 ft | 4 kts | 221° |
| 2026-04-21 15:59 | 44.53245 | 11.28986 | 122 ft | 4 kts | 257° |
| 2026-04-21 15:59 | 44.53245 | 11.29011 | 125 ft | 0 kts | 296° |
| 2026-04-21 16:01 | 44.53250 | 11.28995 | 123 ft | 4 kts | 296° |
| 2026-04-21 16:02 | 44.53268 | 11.28943 | 122 ft | 8 kts | 296° |
| 2026-04-21 16:02 | 44.53298 | 11.28857 | 123 ft | 12 kts | 296° |
| 2026-04-21 16:02 | 44.53362 | 11.28800 | 122 ft | 12 kts | 331° |
| 2026-04-21 16:02 | 44.53411 | 11.28695 | 123 ft | 14 kts | 291° |
| 2026-04-21 16:03 | 44.53457 | 11.28552 | 124 ft | 18 kts | 299° |
| 2026-04-21 16:03 | 44.53519 | 11.28387 | 125 ft | 21 kts | 298° |
| 2026-04-21 16:03 | 44.53589 | 11.28196 | 124 ft | 22 kts | 296° |
| 2026-04-21 16:03 | 44.53650 | 11.28020 | 125 ft | 21 kts | 300° |
| 2026-04-21 16:04 | 44.53721 | 11.27828 | 123 ft | 24 kts | 295° |
| 2026-04-21 16:04 | 44.53795 | 11.27621 | 125 ft | 24 kts | 303° |
| 2026-04-21 16:04 | 44.53941 | 11.27613 | 122 ft | 25 kts | 52° |
| 2026-04-21 16:04 | 44.53897 | 11.27915 | 123 ft | 64 kts | 118° |
| 2026-04-21 16:05 | 44.53566 | 11.28824 | 129 ft | 144 kts | 116° |
| 2026-04-21 16:05 | 44.53039 | 11.30234 | 652 ft | 175 kts | 118° |
| 2026-04-21 16:05 | 44.52571 | 11.31899 | 1456 ft | 194 kts | 92° |
| 2026-04-21 16:05 | 44.53025 | 11.33657 | 2380 ft | 202 kts | 48° |
| 2026-04-21 16:06 | 44.54270 | 11.34600 | 3162 ft | 209 kts | 21° |
| 2026-04-21 16:06 | 44.55645 | 11.35297 | 3900 ft | 216 kts | 24° |
| 2026-04-21 16:06 | 44.57028 | 11.36119 | 4847 ft | 216 kts | 26° |
| 2026-04-21 16:06 | 44.58387 | 11.37032 | 5826 ft | 213 kts | 27° |
| 2026-04-21 16:07 | 44.59713 | 11.37998 | 6573 ft | 221 kts | 28° |
| 2026-04-21 16:07 | 44.61091 | 11.39051 | 7322 ft | 227 kts | 28° |
| 2026-04-21 16:07 | 44.62317 | 11.40537 | 7845 ft | 249 kts | 58° |
| 2026-04-21 16:07 | 44.62749 | 11.43007 | 8198 ft | 278 kts | 94° |
| 2026-04-21 16:08 | 44.60768 | 11.47712 | 9797 ft | 296 kts | 143° |
| 2026-04-21 16:08 | 44.58971 | 11.49216 | 10362 ft | 310 kts | 154° |
| 2026-04-21 16:08 | 44.56931 | 11.50551 | 10597 ft | 335 kts | 157° |
| 2026-04-21 16:09 | 44.54761 | 11.51902 | 11203 ft | 346 kts | 158° |
| 2026-04-21 16:09 | 44.52543 | 11.53306 | 11985 ft | 352 kts | 158° |
| 2026-04-21 16:09 | 44.50305 | 11.54763 | 12782 ft | 357 kts | 157° |
| 2026-04-21 16:09 | 44.48039 | 11.56273 | 13559 ft | 364 kts | 157° |
| 2026-04-21 16:10 | 44.45770 | 11.57806 | 14258 ft | 369 kts | 157° |
| 2026-04-21 16:10 | 44.43448 | 11.59389 | 14989 ft | 373 kts | 158° |
| 2026-04-21 16:10 | 44.41100 | 11.60996 | 15695 ft | 378 kts | 158° |
| 2026-04-21 16:10 | 44.38718 | 11.62627 | 16373 ft | 384 kts | 158° |
| 2026-04-21 16:11 | 44.36302 | 11.64281 | 17052 ft | 389 kts | 158° |
| 2026-04-21 16:11 | 44.33853 | 11.65956 | 17760 ft | 394 kts | 158° |
| 2026-04-21 16:11 | 44.32179 | 11.67101 | 18229 ft | 397 kts | 158° |
| 2026-04-21 16:11 | 44.28860 | 11.69367 | 18997 ft | 405 kts | 159° |
| 2026-04-21 16:12 | 44.27172 | 11.70517 | 19344 ft | 410 kts | 159° |
| 2026-04-21 16:12 | 44.24590 | 11.72266 | 19911 ft | 414 kts | 160° |
| 2026-04-21 16:12 | 44.21886 | 11.73664 | 20449 ft | 414 kts | 171° |
| 2026-04-21 16:12 | 44.19059 | 11.74402 | 20980 ft | 413 kts | 179° |
| 2026-04-21 16:13 | 44.16195 | 11.74934 | 21503 ft | 418 kts | 179° |
| 2026-04-21 16:13 | 44.13281 | 11.75458 | 22023 ft | 424 kts | 180° |
| 2026-04-21 16:13 | 44.10342 | 11.76001 | 22598 ft | 429 kts | 180° |
| 2026-04-21 16:13 | 44.07365 | 11.76570 | 23082 ft | 435 kts | 179° |
| 2026-04-21 16:14 | 44.04345 | 11.77164 | 23572 ft | 441 kts | 179° |
| 2026-04-21 16:14 | 44.01288 | 11.77772 | 24020 ft | 444 kts | 179° |
| 2026-04-21 16:14 | 43.98220 | 11.78386 | 24514 ft | 445 kts | 179° |
| 2026-04-21 16:14 | 43.95146 | 11.78999 | 25027 ft | 447 kts | 179° |
| 2026-04-21 16:15 | 43.92065 | 11.79682 | 25524 ft | 452 kts | 175° |
| 2026-04-21 16:15 | 43.89012 | 11.80972 | 25961 ft | 465 kts | 162° |
| 2026-04-21 16:15 | 43.86117 | 11.83068 | 26424 ft | 475 kts | 150° |
| 2026-04-21 16:15 | 43.83457 | 11.85725 | 26936 ft | 478 kts | 147° |
| 2026-04-21 16:16 | 43.80768 | 11.88541 | 27427 ft | 480 kts | 147° |
| 2026-04-21 16:16 | 43.78111 | 11.91340 | 27935 ft | 480 kts | 146° |
| 2026-04-21 16:16 | 43.75449 | 11.94131 | 28394 ft | 481 kts | 147° |
| 2026-04-21 16:16 | 43.72797 | 11.96887 | 28783 ft | 484 kts | 147° |
| 2026-04-21 16:17 | 43.70089 | 11.99678 | 29157 ft | 487 kts | 147° |
| 2026-04-21 16:17 | 43.67363 | 12.02470 | 29532 ft | 489 kts | 147° |
| 2026-04-21 16:17 | 43.64619 | 12.05269 | 29913 ft | 491 kts | 148° |
| 2026-04-21 16:17 | 43.61856 | 12.08079 | 30193 ft | 495 kts | 148° |
| 2026-04-21 16:18 | 43.59076 | 12.10904 | 30516 ft | 497 kts | 148° |
| 2026-04-21 16:18 | 43.56293 | 12.13730 | 30868 ft | 496 kts | 147° |
| 2026-04-21 16:18 | 43.53523 | 12.16543 | 31362 ft | 493 kts | 147° |
| 2026-04-21 16:18 | 43.50765 | 12.19341 | 31878 ft | 490 kts | 147° |
| 2026-04-21 16:19 | 43.48024 | 12.22118 | 32335 ft | 488 kts | 147° |
| 2026-04-21 16:19 | 43.45285 | 12.24888 | 32745 ft | 487 kts | 147° |
| 2026-04-21 16:19 | 43.42550 | 12.27650 | 33146 ft | 487 kts | 147° |
| 2026-04-21 16:19 | 43.39822 | 12.30402 | 33564 ft | 485 kts | 147° |
| 2026-04-21 16:20 | 43.37105 | 12.33141 | 34000 ft | 484 kts | 147° |
| 2026-04-21 16:20 | 43.34395 | 12.35868 | 34366 ft | 481 kts | 147° |
| 2026-04-21 16:20 | 43.31693 | 12.38586 | 34726 ft | 480 kts | 147° |
| 2026-04-21 16:20 | 43.28999 | 12.41291 | 34958 ft | 481 kts | 148° |
| 2026-04-21 16:21 | 43.26314 | 12.43981 | 34934 ft | 486 kts | 148° |
| 2026-04-21 16:21 | 43.20848 | 12.49456 | 34935 ft | 484 kts | 148° |
| 2026-04-21 16:22 | 43.15457 | 12.54848 | 34936 ft | 478 kts | 148° |
| 2026-04-21 16:22 | 43.10082 | 12.60207 | 34932 ft | 478 kts | 147° |
| 2026-04-21 16:23 | 43.04699 | 12.65560 | 34943 ft | 478 kts | 147° |
| 2026-04-21 16:23 | 42.99306 | 12.70913 | 34928 ft | 479 kts | 147° |
| 2026-04-21 16:24 | 42.93900 | 12.76268 | 34928 ft | 479 kts | 148° |
| 2026-04-21 16:24 | 42.88524 | 12.81581 | 34912 ft | 480 kts | 147° |
| 2026-04-21 16:25 | 42.83110 | 12.86922 | 34918 ft | 480 kts | 148° |
| 2026-04-21 16:25 | 42.76112 | 12.95085 | 34923 ft | 484 kts | 130° |
| 2026-04-21 16:26 | 42.67760 | 13.09194 | 34928 ft | 484 kts | 131° |
| 2026-04-21 16:26 | 42.59176 | 13.23326 | 34934 ft | 485 kts | 131° |
| 2026-04-21 16:27 | 42.50544 | 13.37422 | 34936 ft | 487 kts | 131° |
| 2026-04-21 16:27 | 42.41869 | 13.51534 | 34932 ft | 487 kts | 131° |
| 2026-04-21 16:28 | 42.33165 | 13.65626 | 34963 ft | 488 kts | 132° |
| 2026-04-21 16:28 | 42.24483 | 13.79615 | 34956 ft | 489 kts | 132° |
| 2026-04-21 16:29 | 42.15717 | 13.93672 | 34887 ft | 488 kts | 132° |
| 2026-04-21 16:29 | 42.07141 | 14.07365 | 34976 ft | 485 kts | 132° |
| 2026-04-21 16:30 | 41.98418 | 14.21223 | 34957 ft | 486 kts | 133° |
| 2026-04-21 16:30 | 41.89663 | 14.35072 | 34943 ft | 479 kts | 133° |
| 2026-04-21 16:30 | 41.85509 | 14.41628 | 34863 ft | 453 kts | 133° |
| 2026-04-21 16:31 | 41.82104 | 14.46992 | 34887 ft | 428 kts | 133° |
| 2026-04-21 16:31 | 41.79954 | 14.50368 | 34538 ft | 424 kts | 133° |
| 2026-04-21 16:31 | 41.75986 | 14.56570 | 32364 ft | 457 kts | 133° |
| 2026-04-21 16:31 | 41.71679 | 14.63291 | 30143 ft | 487 kts | 133° |
| 2026-04-21 16:32 | 41.67341 | 14.70072 | 28962 ft | 482 kts | 133° |
| 2026-04-21 16:32 | 41.63010 | 14.76829 | 27853 ft | 475 kts | 133° |
| 2026-04-21 16:32 | 41.58761 | 14.83441 | 27126 ft | 461 kts | 133° |
| 2026-04-21 16:32 | 41.54641 | 14.89834 | 26564 ft | 446 kts | 133° |
| 2026-04-21 16:33 | 41.50654 | 14.96004 | 26042 ft | 431 kts | 133° |
| 2026-04-21 16:33 | 41.46840 | 15.01892 | 25372 ft | 424 kts | 133° |
| 2026-04-21 16:33 | 41.42999 | 15.07810 | 24625 ft | 420 kts | 133° |
| 2026-04-21 16:33 | 41.39187 | 15.13672 | 23841 ft | 417 kts | 133° |
| 2026-04-21 16:34 | 41.35394 | 15.19495 | 22978 ft | 414 kts | 132° |
| 2026-04-21 16:34 | 41.31635 | 15.25258 | 22142 ft | 409 kts | 133° |
| 2026-04-21 16:34 | 41.27918 | 15.30945 | 21375 ft | 404 kts | 133° |
| 2026-04-21 16:34 | 41.24293 | 15.36479 | 20613 ft | 400 kts | 133° |
| 2026-04-21 16:35 | 41.20660 | 15.42014 | 19864 ft | 395 kts | 133° |
| 2026-04-21 16:35 | 41.17067 | 15.47480 | 19129 ft | 391 kts | 133° |
| 2026-04-21 16:35 | 41.13501 | 15.52896 | 18375 ft | 387 kts | 133° |
| 2026-04-21 16:35 | 41.09972 | 15.58246 | 17564 ft | 383 kts | 133° |
| 2026-04-21 16:36 | 41.06479 | 15.63534 | 16796 ft | 379 kts | 133° |
| 2026-04-21 16:36 | 41.03026 | 15.68750 | 16053 ft | 374 kts | 134° |
| 2026-04-21 16:36 | 40.99765 | 15.74004 | 15351 ft | 369 kts | 129° |
| 2026-04-21 16:36 | 40.97017 | 15.78886 | 14735 ft | 365 kts | 128° |
| 2026-04-21 16:37 | 40.95516 | 15.81550 | 14577 ft | 356 kts | 129° |
| 2026-04-21 16:37 | 40.94197 | 15.84260 | 14386 ft | 345 kts | 112° |
| 2026-04-21 16:37 | 40.93710 | 15.87227 | 14278 ft | 327 kts | 89° |
| 2026-04-21 16:37 | 40.93896 | 15.90165 | 14201 ft | 307 kts | 79° |
| 2026-04-21 16:38 | 40.94196 | 15.92908 | 13871 ft | 297 kts | 78° |
| 2026-04-21 16:38 | 40.94501 | 15.95605 | 13257 ft | 297 kts | 79° |
| 2026-04-21 16:38 | 40.94799 | 15.98299 | 12629 ft | 296 kts | 79° |
| 2026-04-21 16:38 | 40.95080 | 16.00910 | 12102 ft | 291 kts | 79° |
| 2026-04-21 16:39 | 40.95356 | 16.03538 | 11575 ft | 287 kts | 80° |
| 2026-04-21 16:39 | 40.95626 | 16.06141 | 11001 ft | 285 kts | 80° |
| 2026-04-21 16:39 | 40.95893 | 16.08736 | 10429 ft | 283 kts | 81° |
| 2026-04-21 16:39 | 40.96155 | 16.11307 | 9905 ft | 281 kts | 81° |
| 2026-04-21 16:40 | 40.96413 | 16.13855 | 9350 ft | 278 kts | 81° |
| 2026-04-21 16:40 | 40.96705 | 16.16363 | 8802 ft | 274 kts | 74° |
| 2026-04-21 16:40 | 40.97326 | 16.18717 | 8264 ft | 269 kts | 65° |
| 2026-04-21 16:40 | 40.98017 | 16.20944 | 7975 ft | 257 kts | 65° |
| 2026-04-21 16:41 | 40.98457 | 16.22388 | 7895 ft | 244 kts | 66° |
| 2026-04-21 16:41 | 40.99249 | 16.25056 | 7496 ft | 230 kts | 66° |
| 2026-04-21 16:41 | 40.99830 | 16.27025 | 7023 ft | 229 kts | 66° |
| 2026-04-21 16:41 | 41.00405 | 16.28993 | 6539 ft | 229 kts | 67° |
| 2026-04-21 16:42 | 41.00994 | 16.30938 | 6082 ft | 225 kts | 64° |
| 2026-04-21 16:42 | 41.01600 | 16.32779 | 5839 ft | 214 kts | 65° |
| 2026-04-21 16:42 | 41.02161 | 16.34608 | 5524 ft | 211 kts | 66° |
| 2026-04-21 16:42 | 41.02692 | 16.36438 | 5137 ft | 214 kts | 68° |
| 2026-04-21 16:43 | 41.03213 | 16.38272 | 4829 ft | 211 kts | 68° |
| 2026-04-21 16:43 | 41.03723 | 16.40086 | 4524 ft | 208 kts | 68° |
| 2026-04-21 16:43 | 41.04216 | 16.41847 | 4270 ft | 202 kts | 68° |
| 2026-04-21 16:43 | 41.04705 | 16.43599 | 4014 ft | 198 kts | 68° |
| 2026-04-21 16:44 | 41.05184 | 16.45313 | 4032 ft | 203 kts | 69° |
| 2026-04-21 16:44 | 41.05684 | 16.47093 | 4014 ft | 208 kts | 68° |
| 2026-04-21 16:44 | 41.06182 | 16.48868 | 4012 ft | 204 kts | 69° |
| 2026-04-21 16:44 | 41.06685 | 16.50655 | 3855 ft | 213 kts | 69° |
| 2026-04-21 16:45 | 41.07201 | 16.52491 | 3600 ft | 210 kts | 69° |
| 2026-04-21 16:45 | 41.07704 | 16.54282 | 3327 ft | 203 kts | 70° |
| 2026-04-21 16:45 | 41.08178 | 16.55965 | 3057 ft | 186 kts | 70° |
| 2026-04-21 16:45 | 41.08604 | 16.57477 | 2826 ft | 165 kts | 70° |
| 2026-04-21 16:46 | 41.08978 | 16.58804 | 2635 ft | 145 kts | 70° |
| 2026-04-21 16:46 | 41.09321 | 16.60024 | 2436 ft | 141 kts | 70° |
| 2026-04-21 16:46 | 41.09666 | 16.61248 | 2237 ft | 140 kts | 70° |
| 2026-04-21 16:46 | 41.10000 | 16.62429 | 2047 ft | 135 kts | 70° |
| 2026-04-21 16:47 | 41.10326 | 16.63588 | 1878 ft | 134 kts | 70° |
| 2026-04-21 16:47 | 41.10655 | 16.64753 | 1712 ft | 136 kts | 69° |
| 2026-04-21 16:47 | 41.10988 | 16.65931 | 1516 ft | 138 kts | 69° |
| 2026-04-21 16:47 | 41.11315 | 16.67090 | 1346 ft | 134 kts | 68° |
| 2026-04-21 16:48 | 41.11643 | 16.68249 | 1168 ft | 134 kts | 70° |
| 2026-04-21 16:48 | 41.11971 | 16.69406 | 989 ft | 134 kts | 70° |
| 2026-04-21 16:48 | 41.12289 | 16.70533 | 827 ft | 131 kts | 69° |
| 2026-04-21 16:48 | 41.12623 | 16.71693 | 630 ft | 134 kts | 69° |
| 2026-04-21 16:49 | 41.12954 | 16.72829 | 394 ft | 131 kts | 71° |
| 2026-04-21 16:49 | 41.13262 | 16.73964 | 192 ft | 131 kts | 70° |
| 2026-04-21 16:49 | 41.13559 | 16.75040 | 137 ft | 115 kts | 68° |
| 2026-04-21 16:49 | 41.13792 | 16.75846 | 136 ft | 72 kts | 70° |
| 2026-04-21 16:50 | 41.13945 | 16.76379 | 123 ft | 51 kts | 69° |
| 2026-04-21 16:50 | 41.13981 | 16.76695 | 122 ft | 19 kts | 121° |
| 2026-04-21 16:50 | 41.13877 | 16.76664 | 124 ft | 16 kts | 216° |
| 2026-04-21 16:50 | 41.13800 | 16.76564 | 134 ft | 13 kts | 227° |
| 2026-04-21 16:51 | 41.13723 | 16.76561 | 135 ft | 11 kts | 192° |
| 2026-04-21 16:51 | 41.13653 | 16.76510 | 135 ft | 12 kts | 227° |
| 2026-04-21 16:51 | 41.13619 | 16.76419 | 135 ft | 5 kts | 272° |
| 2026-04-21 16:51 | 41.13647 | 16.76388 | 135 ft | 6 kts | 341° |
| 2026-04-21 16:52 | 41.13676 | 16.76388 | 135 ft | 0 kts | 18° |